Time;durP1;ratioP1;P1;durP2;ratioP2;P2;SDS_P1;SDS_P2;PMS_P1;PMS_P2;Temp;Humidity;BMP_temperature;BMP_pressure;BME280_temperature;BME280_humidity;BME280_pressure;Samples;Min_cycle;Max_cycle;Signal;HPM_P1;HPM_P2
2023/06/26 00:00:06;;;;;;;11.43;7.92;;;;;;;18.06;100.00;99815.16;1761886;81;21448;-67
2023/06/26 00:02:35;;;;;;;10.32;8.13;;;;;;;18.04;100.00;99807.65;1761918;81;21102;-67
2023/06/26 00:05:04;;;;;;;10.40;8.55;;;;;;;18.04;100.00;99806.27;1762000;81;21090;-67
2023/06/26 00:07:36;;;;;;;12.95;8.20;;;;;;;18.03;100.00;99800.43;1745240;81;21057;-66
2023/06/26 00:10:06;;;;;;;10.80;7.45;;;;;;;18.03;100.00;99805.14;1742553;82;21037;-65
2023/06/26 00:12:35;;;;;;;9.05;7.78;;;;;;;17.99;100.00;99803.44;1742372;82;21473;-66
2023/06/26 00:15:07;;;;;;;9.55;8.10;;;;;;;17.97;100.00;99804.80;1742461;82;21085;-66
2023/06/26 00:17:38;;;;;;;9.13;7.80;;;;;;;17.95;100.00;99800.06;1742501;82;21481;-66
2023/06/26 00:20:08;;;;;;;12.47;7.85;;;;;;;17.94;100.00;99792.84;1742233;82;21125;-67
2023/06/26 00:22:40;;;;;;;10.43;8.10;;;;;;;17.91;100.00;99793.36;1742444;82;21084;-67
2023/06/26 00:25:10;;;;;;;10.98;7.83;;;;;;;17.89;100.00;99796.95;1742559;82;21096;-65
2023/06/26 00:27:39;;;;;;;11.95;8.03;;;;;;;17.86;100.00;99789.99;1742285;82;21041;-67
2023/06/26 00:30:09;;;;;;;11.22;8.20;;;;;;;17.84;100.00;99789.41;1742471;82;21092;-66
2023/06/26 00:32:38;;;;;;;11.75;7.72;;;;;;;17.83;100.00;99790.52;1742310;82;21493;-66
2023/06/26 00:35:07;;;;;;;12.98;8.18;;;;;;;17.81;100.00;99794.09;1742273;82;21129;-66
2023/06/26 00:37:38;;;;;;;13.13;8.05;;;;;;;17.81;100.00;99793.25;1742301;82;21513;-66
2023/06/26 00:40:08;;;;;;;13.28;7.80;;;;;;;17.81;100.00;99794.64;1742503;82;21014;-66
2023/06/26 00:42:38;;;;;;;9.60;7.58;;;;;;;17.79;100.00;99799.06;1742541;82;21053;-66
2023/06/26 00:45:08;;;;;;;13.45;8.20;;;;;;;17.77;100.00;99789.33;1742211;82;21124;-67
2023/06/26 00:47:38;;;;;;;12.35;8.15;;;;;;;17.76;100.00;99794.58;1719987;82;21061;-66
2023/06/26 00:50:08;;;;;;;11.18;8.00;;;;;;;17.74;100.00;99805.38;1695876;82;21089;-67
2023/06/26 00:52:38;;;;;;;10.03;7.90;;;;;;;17.72;100.00;99799.80;1743742;81;21499;-66
2023/06/26 00:55:08;;;;;;;9.85;8.00;;;;;;;17.69;100.00;99790.08;1742509;82;21053;-67
2023/06/26 00:57:37;;;;;;;14.33;8.50;;;;;;;17.69;100.00;99791.46;1742391;82;21057;-66
2023/06/26 01:00:10;;;;;;;9.65;7.58;;;;;;;17.67;100.00;99793.66;1742436;82;21037;-66
2023/06/26 01:02:40;;;;;;;11.65;7.67;;;;;;;17.66;100.00;99789.21;1742416;82;21500;-68
2023/06/26 01:05:12;;;;;;;11.60;7.87;;;;;;;17.64;100.00;99789.98;1742333;82;21108;-65
2023/06/26 01:07:40;;;;;;;8.80;7.40;;;;;;;17.63;100.00;99787.48;1742233;81;21715;-66
2023/06/26 01:10:11;;;;;;;9.83;7.20;;;;;;;17.60;100.00;99783.84;1742392;82;21050;-67
2023/06/26 01:12:40;;;;;;;9.98;8.00;;;;;;;17.60;100.00;99786.61;1742492;82;21100;-67
2023/06/26 01:15:10;;;;;;;10.08;7.42;;;;;;;17.57;100.00;99787.96;1742383;82;21500;-67
2023/06/26 01:17:39;;;;;;;12.55;7.42;;;;;;;17.55;100.00;99787.90;1742259;82;21066;-66
2023/06/26 01:20:11;;;;;;;9.33;7.50;;;;;;;17.54;100.00;99789.83;1742048;82;21341;-67
2023/06/26 01:22:59;;;;;;;9.93;7.08;;;;;;;17.53;100.00;99788.16;1719668;82;21061;-67
2023/06/26 01:25:57;;;;;;;10.30;7.83;;;;;;;17.51;100.00;99795.89;1749840;80;21077;-68
2023/06/26 01:28:26;;;;;;;9.28;7.30;;;;;;;17.47;100.00;99798.05;1744454;82;21093;-67
2023/06/26 01:30:54;;;;;;;12.80;7.72;;;;;;;17.44;100.00;99796.08;1744081;81;21658;-70
2023/06/26 01:33:23;;;;;;;12.95;7.97;;;;;;;17.43;100.00;99803.27;1744259;82;21081;-65
2023/06/26 01:35:53;;;;;;;12.23;7.33;;;;;;;17.40;100.00;99794.92;1744289;82;21124;-67
2023/06/26 01:38:25;;;;;;;14.07;7.50;;;;;;;17.40;100.00;99799.62;1744421;82;21057;-68
2023/06/26 01:40:56;;;;;;;9.53;7.17;;;;;;;17.40;100.00;99796.31;1744188;82;21080;-68
2023/06/26 01:44:08;;;;;;;10.68;7.50;;;;;;;17.41;100.00;99793.83;1744158;82;21018;-68
2023/06/26 01:47:03;;;;;;;9.65;6.70;;;;;;;17.43;100.00;99799.95;1744185;82;21097;-68
2023/06/26 01:49:59;;;;;;;8.95;5.97;;;;;;;17.40;100.00;99793.54;1744410;81;21285;-67
2023/06/26 01:52:40;;;;;;;8.20;6.12;;;;;;;17.39;100.00;99789.09;1744348;82;21077;-67
2023/06/26 01:55:45;;;;;;;8.03;6.72;;;;;;;17.37;100.00;99785.75;1744034;82;21571;-67
2023/06/26 01:58:16;;;;;;;8.13;6.30;;;;;;;17.38;100.00;99781.05;1744044;82;21477;-68
2023/06/26 02:00:45;;;;;;;8.25;6.08;;;;;;;17.38;100.00;99782.42;1744195;82;21103;-67
2023/06/26 02:03:14;;;;;;;7.95;6.20;;;;;;;17.34;100.00;99786.26;1744318;82;21093;-67
2023/06/26 02:05:44;;;;;;;7.35;5.58;;;;;;;17.29;100.00;99781.20;1744090;82;21041;-67
2023/06/26 02:08:15;;;;;;;7.53;5.60;;;;;;;17.25;100.00;99780.05;1744077;81;21088;-68
2023/06/26 02:10:45;;;;;;;6.85;5.40;;;;;;;17.23;100.00;99781.69;1743627;82;21054;-67
2023/06/26 02:13:13;;;;;;;7.58;5.58;;;;;;;17.18;100.00;99774.69;1744249;82;21089;-67
2023/06/26 02:15:44;;;;;;;7.87;5.75;;;;;;;17.10;100.00;99773.75;1744219;82;21005;-67
2023/06/26 02:18:12;;;;;;;7.10;5.62;;;;;;;17.07;100.00;99773.72;1744386;82;21079;-66
2023/06/26 02:20:43;;;;;;;7.97;5.25;;;;;;;17.05;100.00;99770.91;1744457;82;21030;-67
2023/06/26 02:23:12;;;;;;;7.25;5.05;;;;;;;17.04;100.00;99773.39;1744366;82;21070;-67
2023/06/26 02:25:41;;;;;;;6.75;5.45;;;;;;;17.03;100.00;99776.70;1744112;82;21089;-67
2023/06/26 02:28:11;;;;;;;8.78;5.60;;;;;;;17.01;100.00;99776.67;1744362;82;21041;-66
2023/06/26 02:30:42;;;;;;;7.17;5.47;;;;;;;16.98;100.00;99771.09;1744305;82;21048;-68
2023/06/26 02:33:12;;;;;;;7.33;5.50;;;;;;;16.98;100.00;99770.27;1744263;82;21060;-66
2023/06/26 02:35:40;;;;;;;7.80;5.17;;;;;;;16.98;100.00;99768.88;1744190;82;21489;-66
2023/06/26 02:38:12;;;;;;;7.95;5.60;;;;;;;16.95;100.00;99774.38;1745456;82;21037;-66
2023/06/26 02:40:41;;;;;;;9.18;5.30;;;;;;;16.92;100.00;99767.97;1747333;82;21009;-65
2023/06/26 02:43:10;;;;;;;8.03;5.33;;;;;;;16.93;100.00;99768.26;1721754;82;21065;-66
2023/06/26 02:45:39;;;;;;;5.53;4.67;;;;;;;16.98;100.00;99761.95;1745861;81;21037;-66
2023/06/26 02:48:09;;;;;;;8.73;5.22;;;;;;;17.00;100.00;99761.99;1719360;82;21073;-65
2023/06/26 02:50:38;;;;;;;6.15;4.80;;;;;;;17.00;100.00;99761.99;1718369;82;21348;-67
2023/06/26 02:53:09;;;;;;;7.08;5.22;;;;;;;17.03;100.00;99766.18;1744338;82;21028;-66
2023/06/26 02:55:40;;;;;;;7.03;5.50;;;;;;;17.03;100.00;99763.41;1718695;82;21057;-66
2023/06/26 02:58:09;;;;;;;8.20;5.05;;;;;;;17.04;100.00;99758.17;1744327;82;21045;-66
2023/06/26 03:00:41;;;;;;;7.97;5.10;;;;;;;17.05;100.00;99756.53;1744103;82;21053;-67
2023/06/26 03:03:13;;;;;;;8.60;4.97;;;;;;;17.09;100.00;99754.92;1743946;82;21084;-65
2023/06/26 03:05:42;;;;;;;6.45;5.17;;;;;;;17.11;100.00;99761.59;1744081;82;21073;-65
2023/06/26 03:08:12;;;;;;;6.55;4.95;;;;;;;17.11;100.00;99755.50;1744266;81;21110;-67
2023/06/26 03:10:41;;;;;;;7.90;5.20;;;;;;;17.14;100.00;99754.16;1744138;82;21009;-67
2023/06/26 03:13:12;;;;;;;6.53;5.05;;;;;;;17.19;100.00;99754.22;1719098;82;21061;-66
2023/06/26 03:15:41;;;;;;;6.70;5.17;;;;;;;17.19;99.89;99755.60;1718890;82;21037;-65
2023/06/26 03:18:10;;;;;;;6.22;4.95;;;;;;;17.20;99.89;99754.52;1744248;82;21088;-66
2023/06/26 03:20:40;;;;;;;7.17;5.15;;;;;;;17.23;99.80;99750.39;1744110;82;21481;-66
2023/06/26 03:23:09;;;;;;;10.60;4.70;;;;;;;17.25;99.48;99756.50;1744039;82;21092;-67
2023/06/26 03:25:38;;;;;;;7.37;5.40;;;;;;;17.26;98.93;99756.80;1744038;82;21057;-67
2023/06/26 03:28:16;;;;;;;6.62;4.85;;;;;;;17.26;98.76;99759.56;1742942;82;21049;-64
2023/06/26 03:30:45;;;;;;;8.23;5.35;;;;;;;17.28;98.88;99755.99;1718651;82;21057;-66
2023/06/26 03:33:14;;;;;;;7.05;5.25;;;;;;;17.30;98.59;99749.65;1744266;82;21046;-65
2023/06/26 03:35:43;;;;;;;6.83;5.03;;;;;;;17.29;98.11;99750.20;1744095;81;21030;-66
2023/06/26 03:38:15;;;;;;;6.37;5.05;;;;;;;17.30;97.80;99749.65;1743881;82;21509;-64
2023/06/26 03:40:45;;;;;;;7.95;5.62;;;;;;;17.28;97.66;99746.30;1744043;81;21069;-66
2023/06/26 03:43:14;;;;;;;7.75;5.90;;;;;;;17.28;97.59;99754.06;1743980;82;21002;-66
2023/06/26 03:45:51;;;;;;;7.85;5.42;;;;;;;17.31;97.77;99754.93;1728802;82;21069;-65
2023/06/26 03:48:20;;;;;;;8.40;5.92;;;;;;;17.33;97.56;99748.59;1718622;82;21089;-65
2023/06/26 03:50:49;;;;;;;7.97;5.87;;;;;;;17.34;97.40;99743.34;1718553;82;21062;-65
2023/06/26 03:53:18;;;;;;;7.58;5.47;;;;;;;17.34;97.20;99739.19;1744044;82;21081;-65
2023/06/26 03:55:48;;;;;;;8.30;5.75;;;;;;;17.37;97.49;99734.52;1744180;82;21049;-65
2023/06/26 03:58:16;;;;;;;6.72;5.45;;;;;;;17.42;97.43;99740.11;1744172;81;21083;-66
2023/06/26 04:00:47;;;;;;;6.50;5.28;;;;;;;17.45;97.25;99738.76;1718794;82;21084;-65
2023/06/26 04:03:15;;;;;;;6.95;5.15;;;;;;;17.46;96.42;99740.44;1743975;82;21520;-66
2023/06/26 04:05:45;;;;;;;11.00;5.22;;;;;;;17.43;95.90;99737.62;1743921;82;21057;-66
2023/06/26 04:08:14;;;;;;;6.62;5.22;;;;;;;17.43;95.97;99736.80;1744013;81;21041;-64
2023/06/26 04:10:45;;;;;;;6.83;5.45;;;;;;;17.42;95.74;99738.73;1744311;82;21049;-66
2023/06/26 04:13:15;;;;;;;7.35;5.17;;;;;;;17.44;95.63;99745.39;1744261;82;21049;-66
2023/06/26 04:15:44;;;;;;;6.58;5.37;;;;;;;17.46;95.74;99740.44;1655360;86;21096;-66
2023/06/26 04:18:14;;;;;;;7.87;6.08;;;;;;;17.51;95.67;99735.50;1655730;85;21085;-67
2023/06/26 04:21:05;;;;;;;7.20;5.75;;;;;;;17.55;95.74;99733.89;1655651;87;21108;-66
2023/06/26 04:23:34;;;;;;;9.48;5.90;;;;;;;17.60;95.99;99732.59;1655849;87;21088;-66
2023/06/26 04:26:05;;;;;;;6.87;5.45;;;;;;;17.62;95.44;99735.94;1655815;87;21056;-65
2023/06/26 04:28:34;;;;;;;8.55;5.95;;;;;;;17.63;95.16;99737.61;1633936;87;21581;-66
2023/06/26 04:31:05;;;;;;;10.03;6.28;;;;;;;17.64;94.92;99728.20;1655641;87;21084;-65
2023/06/26 04:33:34;;;;;;;8.18;5.95;;;;;;;17.60;94.04;99737.58;1688186;82;21140;-66
2023/06/26 04:36:05;;;;;;;9.43;6.20;;;;;;;17.59;93.56;99740.61;1744182;82;21042;-67
2023/06/26 04:38:34;;;;;;;8.63;5.58;;;;;;;17.58;93.55;99743.09;1743993;81;21105;-64
2023/06/26 04:41:04;;;;;;;7.37;5.47;;;;;;;17.58;93.17;99738.94;1718747;82;21109;-66
2023/06/26 04:43:34;;;;;;;6.80;5.67;;;;;;;17.61;93.23;99734.27;1744150;82;21505;-65
2023/06/26 04:46:04;;;;;;;7.75;5.60;;;;;;;17.65;93.17;99725.72;1655871;86;21108;-65
2023/06/26 04:48:33;;;;;;;9.20;6.75;;;;;;;17.69;92.96;99724.97;1655824;87;21117;-65
2023/06/26 04:51:02;;;;;;;11.50;7.55;;;;;;;17.74;92.86;99735.27;1655864;87;21113;-63
2023/06/26 04:53:32;;;;;;;10.43;6.80;;;;;;;17.80;92.24;99726.45;1655786;87;21550;-65
2023/06/26 04:56:02;;;;;;;8.15;6.42;;;;;;;17.88;92.15;99725.98;1655922;87;21484;-67
2023/06/26 04:58:31;;;;;;;10.05;6.08;;;;;;;17.95;91.69;99726.05;1655772;87;21045;-65
2023/06/26 05:01:00;;;;;;;8.00;5.70;;;;;;;18.02;90.94;99723.91;1655925;87;21096;-65
2023/06/26 05:03:31;;;;;;;7.80;6.10;;;;;;;18.08;89.98;99722.02;1656040;87;21029;-66
2023/06/26 05:06:01;;;;;;;10.15;7.75;;;;;;;18.20;89.97;99714.91;1655697;86;21132;-66
2023/06/26 05:08:33;;;;;;;10.35;5.80;;;;;;;18.38;89.39;99714.53;1647929;86;21104;-65
2023/06/26 05:11:02;;;;;;;7.50;5.70;;;;;;;18.59;88.38;99703.86;1699816;83;21050;-65
2023/06/26 05:13:31;;;;;;;7.87;5.85;;;;;;;18.81;87.08;99702.92;1701373;83;21097;-66
2023/06/26 05:16:00;;;;;;;10.48;6.58;;;;;;;19.02;85.67;99701.95;1730301;83;21125;-65
2023/06/26 05:18:29;;;;;;;9.88;5.72;;;;;;;19.14;84.57;99695.62;1730299;82;21539;-65
2023/06/26 05:21:00;;;;;;;9.58;5.95;;;;;;;19.22;83.75;99696.48;1730393;83;21125;-67
2023/06/26 05:23:33;;;;;;;8.28;5.90;;;;;;;19.28;83.25;99695.40;1730439;83;21173;-65
2023/06/26 05:26:03;;;;;;;7.92;6.20;;;;;;;19.29;81.65;99695.68;1701499;83;21062;-66
2023/06/26 05:28:36;;;;;;;6.47;5.78;;;;;;;19.22;81.19;99688.70;1730318;83;21200;-65
2023/06/26 05:31:06;;;;;;;8.10;6.10;;;;;;;19.17;81.09;99691.47;1730430;83;21453;-64
2023/06/26 05:33:37;;;;;;;7.00;6.30;;;;;;;19.13;81.47;99692.56;1730394;82;21093;-65
2023/06/26 05:36:06;;;;;;;9.08;6.30;;;;;;;19.11;81.76;99692.00;1706447;83;21064;-65
2023/06/26 05:38:35;;;;;;;8.23;6.10;;;;;;;19.08;81.62;99703.64;1730302;83;21132;-65
2023/06/26 05:41:04;;;;;;;9.33;7.00;;;;;;;19.01;80.91;99708.61;1730446;83;21046;-64
2023/06/26 05:43:34;;;;;;;7.80;6.12;;;;;;;18.90;80.96;99709.11;1643633;87;21133;-65
2023/06/26 05:46:02;;;;;;;7.53;5.58;;;;;;;18.84;81.43;99704.61;1643895;87;21246;-65
2023/06/26 05:48:32;;;;;;;7.53;5.80;;;;;;;18.80;81.14;99706.80;1643717;87;21196;-66
2023/06/26 05:51:03;;;;;;;8.93;5.20;;;;;;;18.76;81.36;99713.98;1643732;87;21029;-66
2023/06/26 05:53:33;;;;;;;7.58;5.40;;;;;;;18.73;81.21;99710.36;1643928;87;21077;-64
2023/06/26 05:56:03;;;;;;;6.92;5.55;;;;;;;18.71;81.44;99707.02;1589318;90;21101;-66
2023/06/26 05:58:33;;;;;;;7.83;5.65;;;;;;;18.74;81.74;99699.55;1589403;89;21113;-66
2023/06/26 06:01:02;;;;;;;9.05;5.28;;;;;;;18.78;82.21;99689.03;1580564;87;21518;-64
2023/06/26 06:03:32;;;;;;;6.80;4.62;;;;;;;18.86;81.79;99699.65;1642767;87;21355;-66
2023/06/26 06:06:01;;;;;;;8.65;5.60;;;;;;;18.91;80.96;99693.29;1642529;87;21108;-64
2023/06/26 06:08:32;;;;;;;6.08;4.95;;;;;;;18.99;80.60;99691.39;1622318;86;21169;-66
2023/06/26 06:11:01;;;;;;;7.28;5.08;;;;;;;19.09;80.29;99692.82;1671986;86;21573;-64
2023/06/26 06:13:33;;;;;;;9.48;5.25;;;;;;;19.17;80.17;99691.47;1671920;86;21065;-65
2023/06/26 06:16:02;;;;;;;6.40;5.03;;;;;;;19.17;78.57;99678.41;1674336;86;21074;-64
2023/06/26 06:18:31;;;;;;;6.92;4.80;;;;;;;19.09;78.39;99683.10;1674525;86;21082;-65
2023/06/26 06:21:01;;;;;;;5.17;4.58;;;;;;;19.08;78.80;99686.15;1733074;81;21015;-65
2023/06/26 06:23:32;;;;;;;8.05;5.08;;;;;;;19.08;79.12;99686.15;1763556;81;21123;-68
2023/06/26 06:26:04;;;;;;;5.08;4.58;;;;;;;19.10;78.98;99685.33;1763066;81;21396;-65
2023/06/26 06:28:33;;;;;;;6.17;4.95;;;;;;;19.08;78.85;99693.09;1762641;81;21194;-65
2023/06/26 06:31:03;;;;;;;5.80;4.65;;;;;;;19.06;78.14;99685.03;1762856;81;21079;-65
2023/06/26 06:33:32;;;;;;;5.80;4.85;;;;;;;18.97;77.63;99694.44;1762506;81;21083;-68
2023/06/26 06:36:02;;;;;;;6.47;4.28;;;;;;;18.89;77.96;99700.50;1762459;81;21047;-66
2023/06/26 06:38:32;;;;;;;7.40;4.70;;;;;;;18.82;78.21;99693.48;1762736;81;21090;-66
2023/06/26 06:41:02;;;;;;;5.25;4.08;;;;;;;18.78;78.51;99688.19;1762447;81;21044;-65
2023/06/26 06:43:33;;;;;;;5.87;4.30;;;;;;;18.78;78.79;99690.41;1762527;81;21055;-64
2023/06/26 06:46:01;;;;;;;7.97;4.12;;;;;;;18.81;79.07;99686.27;1762312;81;21098;-65
2023/06/26 06:48:32;;;;;;;5.35;3.77;;;;;;;18.96;79.28;99688.59;1762735;81;21052;-65
2023/06/26 06:51:00;;;;;;;5.47;3.65;;;;;;;19.12;77.92;99682.56;1739348;81;21451;-65
2023/06/26 06:53:30;;;;;;;6.97;4.00;;;;;;;19.24;77.02;99681.77;1762586;81;21506;-66
2023/06/26 06:56:00;;;;;;;4.00;3.50;;;;;;;19.31;77.09;99680.97;1762600;81;21114;-65
2023/06/26 06:58:33;;;;;;;5.20;3.72;;;;;;;19.56;77.15;99680.82;1762523;81;21122;-65
2023/06/26 07:01:04;;;;;;;6.10;4.85;;;;;;;19.96;76.23;99680.04;1762771;81;21059;-66
2023/06/26 07:03:34;;;;;;;5.78;3.98;;;;;;;20.28;74.41;99668.67;1762693;81;21075;-66
2023/06/26 07:06:05;;;;;;;5.15;4.00;;;;;;;20.37;72.52;99685.07;1734600;81;21103;-65
2023/06/26 07:08:35;;;;;;;5.55;4.30;;;;;;;20.33;72.00;99682.58;1761318;81;21075;-65
2023/06/26 07:11:04;;;;;;;6.17;3.85;;;;;;;20.17;71.55;99690.65;1758932;81;21054;-67
2023/06/26 07:13:34;;;;;;;8.08;3.60;;;;;;;20.01;71.89;99687.55;1759188;81;21151;-65
2023/06/26 07:16:04;;;;;;;5.53;3.80;;;;;;;19.83;72.16;99686.98;1759353;81;21090;-65
2023/06/26 07:18:33;;;;;;;5.53;3.85;;;;;;;19.59;72.50;99694.16;1759019;81;21079;-66
2023/06/26 07:21:02;;;;;;;4.28;3.42;;;;;;;19.40;73.45;99687.38;1758901;81;21075;-66
2023/06/26 07:23:31;;;;;;;4.72;3.98;;;;;;;19.25;74.17;99687.61;1759186;81;21087;-66
2023/06/26 07:26:00;;;;;;;6.08;3.40;;;;;;;19.17;74.97;99692.30;1759269;81;21467;-65
2023/06/26 07:28:29;;;;;;;4.80;3.80;;;;;;;19.10;75.20;99675.05;1759004;81;21098;-66
2023/06/26 07:30:58;;;;;;;5.95;3.60;;;;;;;19.05;76.02;99683.36;1759081;81;21055;-66
2023/06/26 07:33:29;;;;;;;5.58;3.62;;;;;;;19.11;76.86;99686.44;1759187;81;21051;-65
2023/06/26 07:35:57;;;;;;;5.60;3.15;;;;;;;19.26;76.28;99686.50;1758894;81;21472;-66
2023/06/26 07:38:28;;;;;;;4.10;3.27;;;;;;;19.42;75.68;99689.33;1759176;81;21083;-65
2023/06/26 07:40:58;;;;;;;6.75;3.58;;;;;;;19.54;75.29;99676.92;1758999;81;21039;-66
2023/06/26 07:43:27;;;;;;;5.03;3.30;;;;;;;19.58;74.06;99679.44;1758982;81;21060;-67
2023/06/26 07:45:58;;;;;;;3.90;3.50;;;;;;;19.49;73.73;99686.57;1758878;81;21020;-68
2023/06/26 07:48:27;;;;;;;3.80;2.83;;;;;;;19.42;74.06;99681.83;1758950;81;21567;-67
2023/06/26 07:50:57;;;;;;;2.90;2.65;;;;;;;19.36;74.36;99682.09;1759036;81;21051;-66
2023/06/26 07:53:25;;;;;;;3.33;3.02;;;;;;;19.31;74.35;99682.35;1758932;81;22026;-67
2023/06/26 07:55:55;;;;;;;4.67;2.95;;;;;;;19.29;74.56;99677.62;1759028;81;21066;-67
2023/06/26 07:58:25;;;;;;;3.10;2.80;;;;;;;19.29;74.86;99673.45;1759104;81;21095;-67
2023/06/26 08:00:54;;;;;;;14.53;3.83;;;;;;;19.33;75.21;99666.80;1759199;81;21064;-67
2023/06/26 08:03:23;;;;;;;4.72;3.40;;;;;;;19.33;75.04;99675.97;1759187;81;21147;-68
2023/06/26 08:05:53;;;;;;;8.13;3.42;;;;;;;19.34;75.36;99672.64;1756943;81;21126;-70
2023/06/26 08:08:24;;;;;;;4.80;3.80;;;;;;;19.39;76.17;99678.21;1756856;81;21063;-70
2023/06/26 08:10:54;;;;;;;4.05;3.25;;;;;;;19.47;76.35;99678.23;1720851;82;21525;-71
2023/06/26 08:13:30;;;;;;;4.33;3.50;;;;;;;19.57;76.40;99675.55;1716156;82;21009;-70
2023/06/26 08:16:09;;;;;;;4.17;3.20;;;;;;;19.76;75.06;99680.86;1743382;82;21048;-70
2023/06/26 08:18:40;;;;;;;5.05;3.50;;;;;;;19.97;74.68;99685.05;1736094;82;21020;-72
2023/06/26 08:21:09;;;;;;;4.35;3.60;;;;;;;20.12;73.86;99673.93;1739672;82;21063;-71
2023/06/26 08:23:40;;;;;;;5.42;3.30;;;;;;;20.18;72.50;99678.41;1739571;81;21064;-73
2023/06/26 08:26:14;;;;;;;4.62;3.27;;;;;;;20.14;72.14;99687.00;1739492;81;21491;-68
2023/06/26 08:28:46;;;;;;;3.98;2.90;;;;;;;20.06;72.32;99687.55;1737782;81;20997;-67
2023/06/26 08:31:17;;;;;;;5.58;3.95;;;;;;;19.99;72.65;99689.78;1757383;81;21482;-69
2023/06/26 08:33:46;;;;;;;5.33;3.33;;;;;;;19.95;72.85;99683.94;1742262;82;21101;-67
2023/06/26 08:36:15;;;;;;;6.22;3.50;;;;;;;19.88;72.67;99681.42;1655363;87;21149;-64
2023/06/26 08:38:45;;;;;;;5.53;2.92;;;;;;;19.77;72.63;99677.52;1655012;87;21074;-64
2023/06/26 08:41:18;;;;;;;9.23;3.65;;;;;;;19.67;72.80;99676.11;1655624;87;21101;-67
2023/06/26 08:43:50;;;;;;;4.45;2.58;;;;;;;19.60;72.94;99688.89;1655216;86;21101;-66
2023/06/26 08:46:20;;;;;;;3.02;2.27;;;;;;;19.52;73.10;99674.97;1671238;86;21196;-65
2023/06/26 08:48:56;;;;;;;6.15;3.08;;;;;;;19.45;73.81;99692.95;1653846;87;21331;-67
2023/06/26 08:51:26;;;;;;;1.75;1.65;;;;;;;19.43;73.90;99692.39;1671437;86;21046;-70
2023/06/26 08:54:01;;;;;;;2.85;1.62;;;;;;;19.45;73.61;99707.67;1679880;82;21029;-70
2023/06/26 08:56:37;;;;;;;2.22;1.32;;;;;;;19.41;73.02;99707.11;1713920;82;21009;-74
2023/06/26 08:59:06;;;;;;;3.02;1.67;;;;;;;19.32;73.50;99704.86;1738211;82;21017;-71
2023/06/26 09:01:35;;;;;;;3.70;2.25;;;;;;;19.36;73.88;99704.31;1740654;82;21001;-71
2023/06/26 09:04:04;;;;;;;2.67;1.55;;;;;;;19.43;74.04;99694.61;1738412;82;21073;-71
2023/06/26 09:06:34;;;;;;;2.40;1.47;;;;;;;19.51;73.27;99709.39;1738340;82;21021;-72
2023/06/26 09:09:03;;;;;;;1.30;1.20;;;;;;;19.55;72.80;99699.98;1737372;81;21113;-70
2023/06/26 09:11:32;;;;;;;1.95;1.20;;;;;;;19.61;72.33;99690.00;1724443;83;20994;-73
2023/06/26 09:14:05;;;;;;;2.85;1.50;;;;;;;19.65;72.25;99703.34;1729574;83;21034;-70
2023/06/26 09:16:42;;;;;;;2.08;1.32;;;;;;;19.62;72.13;99701.40;1705453;83;21515;-72
2023/06/26 09:19:12;;;;;;;1.90;1.45;;;;;;;19.66;72.64;99695.30;1702243;83;21034;-71
2023/06/26 09:21:41;;;;;;;2.90;1.20;;;;;;;19.74;72.91;99704.48;1729674;83;21053;-73
2023/06/26 09:24:10;;;;;;;2.15;1.00;;;;;;;19.81;71.87;99703.10;1639672;87;21066;-71
2023/06/26 09:26:41;;;;;;;2.08;1.10;;;;;;;19.83;71.16;99710.61;1639666;87;22108;-68
2023/06/26 09:29:10;;;;;;;1.75;1.07;;;;;;;19.84;71.12;99713.67;1618546;87;21042;-70
2023/06/26 09:31:39;;;;;;;2.77;1.00;;;;;;;19.80;71.71;99724.23;1640038;87;21110;-71
2023/06/26 09:34:10;;;;;;;9.38;5.03;;;;;;;19.77;71.26;99716.44;1639904;87;21197;-76
2023/06/26 09:36:41;;;;;;;3.10;1.15;;;;;;;19.72;71.69;99715.04;1639938;87;21802;-73
2023/06/26 09:39:11;;;;;;;1.50;1.02;;;;;;;19.70;72.09;99719.48;1640275;87;21545;-70
2023/06/26 09:41:42;;;;;;;8.23;2.30;;;;;;;19.66;72.52;99719.75;1661142;83;21108;-72
2023/06/26 09:44:14;;;;;;;1.20;1.10;;;;;;;19.62;72.75;99725.02;1726873;83;21022;-69
2023/06/26 09:46:45;;;;;;;2.95;1.70;;;;;;;19.56;73.04;99719.17;1732068;83;21084;-70
2023/06/26 09:49:14;;;;;;;6.37;2.00;;;;;;;19.53;73.30;99714.16;1731742;83;21066;-70
2023/06/26 09:51:43;;;;;;;4.12;1.37;;;;;;;19.52;73.83;99706.93;1729937;83;21033;-73
2023/06/26 09:54:12;;;;;;;1.70;1.40;;;;;;;19.54;73.79;99703.33;1729422;83;21507;-71
2023/06/26 09:56:41;;;;;;;2.22;1.50;;;;;;;19.61;73.77;99704.45;1617585;88;21384;-70
2023/06/26 09:59:10;;;;;;;1.25;1.05;;;;;;;19.71;73.48;99716.14;1614012;89;21117;-70
2023/06/26 10:01:45;;;;;;;4.15;1.32;;;;;;;19.80;72.56;99707.55;1593488;89;21062;-71
2023/06/26 10:04:14;;;;;;;1.77;1.47;;;;;;;19.85;72.08;99710.34;1614122;89;21567;-71
2023/06/26 10:06:52;;;;;;;4.08;1.62;;;;;;;19.86;71.61;99696.72;1614063;89;21034;-72
2023/06/26 10:09:19;;;;;;;4.00;1.40;;;;;;;19.84;71.21;99712.84;1617516;86;21533;-70
2023/06/26 10:12:08;;;;;;;3.17;1.30;;;;;;;19.88;71.22;99717.57;1628090;88;21191;-71
2023/06/26 10:14:39;;;;;;;2.20;1.45;;;;;;;19.92;70.51;99702.00;1674223;82;21061;-69
2023/06/26 10:17:15;;;;;;;2.08;1.30;;;;;;;19.95;70.80;99709.80;1744044;82;20993;-71
2023/06/26 10:19:46;;;;;;;2.25;1.50;;;;;;;20.00;70.90;99716.47;1716246;82;21041;-71
2023/06/26 10:22:18;;;;;;;3.30;1.50;;;;;;;19.98;70.09;99720.09;1743758;81;21044;-70
2023/06/26 10:24:48;;;;;;;2.45;1.37;;;;;;;19.94;70.19;99722.03;1743660;81;21088;-72
2023/06/26 10:27:20;;;;;;;2.08;1.40;;;;;;;19.88;69.80;99718.96;1743749;82;21044;-71
2023/06/26 10:29:59;;;;;;;1.92;1.45;;;;;;;19.85;69.89;99727.86;1743571;82;21053;-70
2023/06/26 10:32:28;;;;;;;2.55;1.40;;;;;;;19.82;70.13;99724.23;1743737;82;21060;-73
2023/06/26 10:34:56;;;;;;;3.10;1.55;;;;;;;19.82;70.32;99726.17;1739607;82;21469;-72
2023/06/26 10:37:44;;;;;;;3.95;1.70;;;;;;;19.82;70.64;99724.23;1743975;82;21048;-72
2023/06/26 10:40:26;;;;;;;6.00;1.80;;;;;;;19.85;70.70;99742.31;1743714;82;21494;-71
2023/06/26 10:43:08;;;;;;;3.25;1.80;;;;;;;19.88;70.62;99738.42;1743801;81;21449;-69
2023/06/26 10:45:36;;;;;;;2.20;1.60;;;;;;;19.90;69.62;99734.81;1743676;82;21053;-70
2023/06/26 10:48:06;;;;;;;5.92;1.55;;;;;;;19.93;69.80;99732.88;1743716;82;21017;-75
2023/06/26 10:50:37;;;;;;;1.92;1.50;;;;;;;20.00;69.81;99735.94;1719158;82;21057;-71
2023/06/26 10:53:35;;;;;;;1.70;1.50;;;;;;;20.09;69.90;99732.33;1723367;82;21029;-71
2023/06/26 10:56:03;;;;;;;2.22;1.72;;;;;;;20.23;69.51;99734.05;1721859;83;21245;-71
2023/06/26 10:58:44;;;;;;;2.30;1.60;;;;;;;20.38;68.67;99732.66;1728773;81;21584;-69
2023/06/26 11:01:21;;;;;;;2.55;1.60;;;;;;;20.47;68.41;99736.58;1735880;81;21171;-72
2023/06/26 11:04:05;;;;;;;2.80;1.72;;;;;;;20.54;66.87;99733.52;1743824;82;21041;-70
2023/06/26 11:06:35;;;;;;;2.27;1.90;;;;;;;20.49;66.82;99746.88;1691915;82;21075;-72
2023/06/26 11:09:08;;;;;;;3.62;1.90;;;;;;;20.53;67.53;99737.41;1717618;82;21475;-73
2023/06/26 11:11:59;;;;;;;4.58;1.90;;;;;;;20.61;66.75;99742.97;1706526;83;21017;-75
2023/06/26 11:14:28;;;;;;;1.90;1.80;;;;;;;20.66;66.61;99747.14;1733811;83;21065;-72
2023/06/26 11:17:00;;;;;;;5.08;1.90;;;;;;;20.70;66.45;99742.68;1733892;82;21013;-72
2023/06/26 11:19:28;;;;;;;1.77;1.42;;;;;;;20.66;66.08;99748.53;1725942;83;21085;-71
2023/06/26 11:22:04;;;;;;;2.05;1.70;;;;;;;20.59;65.88;99746.03;1725862;83;21046;-71
2023/06/26 11:24:33;;;;;;;2.00;1.70;;;;;;;20.53;66.45;99751.33;1700076;84;21099;-72
2023/06/26 11:27:03;;;;;;;4.85;3.47;;;;;;;20.47;66.64;99742.14;1727796;82;21074;-73
2023/06/26 11:29:36;;;;;;;3.25;2.00;;;;;;;20.46;66.73;99746.04;1755901;81;21455;-73
2023/06/26 11:32:07;;;;;;;3.15;1.95;;;;;;;20.44;67.14;99749.66;1755863;81;21046;-72
2023/06/26 11:34:42;;;;;;;3.47;1.85;;;;;;;20.49;67.21;99741.31;1755840;81;21058;-73
2023/06/26 11:37:18;;;;;;;2.30;1.80;;;;;;;20.56;67.14;99739.08;1716517;82;21041;-72
2023/06/26 11:39:46;;;;;;;2.58;1.77;;;;;;;20.65;67.07;99735.73;1756048;82;21078;-72
2023/06/26 11:42:15;;;;;;;2.83;1.90;;;;;;;20.74;66.72;99733.48;1756019;82;21022;-74
2023/06/26 11:44:44;;;;;;;2.65;1.70;;;;;;;20.82;66.36;99742.69;1756202;82;21026;-72
2023/06/26 11:47:19;;;;;;;1.80;1.57;;;;;;;20.86;65.71;99730.43;1755961;82;21427;-71